Northwood, Iowa
Current Conditions -  °F | °C
As of 8:33 PM on Sunday 23 Nov 2014 (Local Time) from KAEL Reporting Station
Overcast Overcast  
Wind Chill: 28°   Ceiling: 1700
Heat Index: 37°   Visibility: 10mi
Dew Point: 34°   Wind: 16mph
Humidity: 87%   Direction: 310°NW
Pressure: 29.36"   Gusts: 24mph
Location:  43.44°N, 93.22°W
Report Text: KAEL 240233Z AUTO 31014G21KT 10SM OVC017 03/01 A2936 RMK AO2
Loading
Personal Weather Stations






























Interactive Weather Map New forecast layout! Learn more

10-Day Weather Forecast

Advertisements
Track Severe Weather on mobile